AirNav   Air Wisconsin pilot careers
 
 403 users online  

CL77 Bonny Doon Airport
Santa Cruz, California, USA

GOING TO SANTA CRUZ?


FAA INFORMATION EFFECTIVE 29 MARCH 2018

Location

FAA Identifier: CL77
Lat/Long: 37-04-13.8130N / 122-07-38.8760W
37-04.230217N / 122-07.647933W
37.0705036 / -122.1274656
(estimated)
Elevation: 2020 ft. / 616 m (estimated)
Variation: 16E (1980)
From city: 8 miles NW of SANTA CRUZ, CA
Time zone: UTC -7 (UTC -8 during Standard Time)
Zip code: 95060

Airport Operations

Airport use: Private use. Permission required prior to landing
Activation date: 07/1986
Control tower: no
ARTCC: OAKLAND CENTER
FSS: OAKLAND FLIGHT SERVICE STATION
Attendance: CONTINUOUS
Wind indicator: yes
Segmented circle: yes

Airport Communications

WX ASOS at WVI (18 nm SE): 132.275 (831-724-8794)
WX ASOS at SJC (20 nm NE): PHONE 408-969-0838

Nearby radio navigation aids

VOR radial/distance  VOR name  Freq  Var
SJCr190/20.2SAN JOSE VOR/DME114.1016E
OSIr142/20.7WOODSIDE VOR/DME113.9017E
SFOr143/35.0SAN FRANCISCO VOR/DME115.8017E
SNSr297/35.1SALINAS VORTAC117.3017E
OAKr156/39.6OAKLAND VOR/DME116.8017E

Airport Services

Runway Information

Runway 12/30

Dimensions: 2200 x 50 ft. / 671 x 15 m
Surface: asphalt
RUNWAY 12  RUNWAY 30
Traffic pattern: leftleft

Airport Ownership and Management from official FAA records

Ownership: Privately-owned
Owner: BONNY DOON AIRPORT LLC
8647 EMPIRE GRADE
SANTA CRUZ, CA 95060
Phone 415-764-2721
C/O MARGARET LIP
Manager: PHILLIP TRISSELL
11530 EMPIRE GRADE
SANTA CRUZ, CA 95060
Phone 831-254-5111

Airport Operational Statistics

Aircraft based on the field: 2
Single engine airplanes: 2
    

Additional Remarks

TREES SURROUNDING ARPT; HIGH TRRN NORTH; USE RWY 30 FOR LANDING; RWY 12 FOR TKOF.

Instrument Procedures

There are no published instrument procedures at CL77.

Some nearby airports with instrument procedures:

KWVI - Watsonville Municipal Airport (18 nm SE)
KSJC - Norman Y Mineta San Jose International Airport (20 nm NE)
KNUQ - Moffett Federal Airfield (21 nm N)
KRHV - Reid-Hillview Airport of Santa Clara County (22 nm NE)
KPAO - Palo Alto Airport (23 nm N)
 
Loc | Ops | Rwys | IFR | FBO | Links
Com | Nav | Svcs | Stats | Notes

AirNav Hotels Sweepstakes
 
Area around CL77 (Bonny Doon Airport)
 
Road maps at: MapQuest Bing Google
 
Aerial photo
WARNING: Photo may not be current or correct
Aerial photo of CL77 (Bonny Doon Airport)
Do you have a better or more recent aerial photo of Bonny Doon Airport that you would like to share? If so, please send us your photo.

 
Sectional chart

 
Airport distance calculator
Flying to Bonny Doon Airport? Find the distance to fly.

From to CL77

Sunrise and sunset
Times for 24-Apr-2018
 Local
(UTC-7)
 Zulu
(UTC)
Morning civil twilight05:5612:56
Sunrise06:2313:23
Sunset19:5002:50
Evening civil twilight20:1803:18

Current date and time
Zulu (UTC)  24-Apr-2018 10:01:37
Local (UTC-7)  24-Apr-2018 03:01:37
 
METAR
KWVI 
18nm SE 
240953Z AUTO 00000KT 6SM BR OVC005 11/10 A3001 RMK AO2 SLP163 T01060100
KSJC 
20nm NE 
240953Z AUTO 14004KT 10SM OVC012 13/10 A3000 RMK AO2 SLP157 T01280100
KRHV 
21nm NE 
240456Z VRB06KT 10SM SKC 16/10 A2999
KNUQ 
21nm N 
240956Z 03003KT 9SM OVC012 13/11 A3000 RMK AO2 SLP162 T01330111
KPAO 
24nm N 
240247Z 32010KT 10SM FEW180 A2995
KE16 
25nm E 
240955Z AUTO 00000KT 7SM OVC004 10/09 A3003 RMK AO2
KSQL 
27nm N 
240955Z AUTO 31003KT 10SM BKN015 12/09 A3000 RMK AO2
KOAR 
30nm SE 
134.025 831-384-2967
No observation available
KHAF 
32nm NW 
240955Z AUTO 06003KT 5SM BR OVC008 11/09 A3001 RMK AO2
KMRY 
32nm SE 
240954Z AUTO 08004KT 8SM OVC006 11/09 A3001 RMK AO2 SLP175 T01060089
TAF
KSJC 
20nm NE 
240523Z 2406/2506 30004KT P6SM FEW250 FM241000 14004KT P6SM SKC FM241800 32012KT P6SM SKC FM250200 30008KT P6SM SKC
NOTAMs
Click for the latest NOTAMs
NOTAMs are issued by the DoD/FAA and will open in a separate window not controlled by AirNav.

 

 
 

Would you like to see your business listed on this page?

 If your business provides an interesting product or service to pilots, flight crews, aircraft, or users of the Bonny Doon Airport, you should consider listing it here.  To start the listing process, click on the button below
 
Add a business
 

Other Pages about Bonny Doon Airport

Update a link
 
Copyright © AirNav, LLC. All rights reserved. Privacy Policy  Contact